< Typhoon 198109 1981 Season Typhoon 198111 >
Typhoon 198110 (OGDEN)
General InformationTrack Information on Google MapsDetailed Wind InformationList of All Images || Disaster Info.ResourceGoogle EarthGE AnimationAtom FeedGeoJSON
Detalied Best Track (Time Zone = UTC)
Year Month Day Hour Lat. Long. Pressure (hPa) Wind (kt) Class Image Chart
1981 7 26 06 22.0 148.5 1006 0 2 Image Chart
1981 7 26 12 22.4 148.4 1004 0 2 Image Chart
1981 7 26 18 22.7 148.3 1004 0 2 Image Chart
1981 7 27 00 23.1 148.2 1002 0 2 Image Chart
1981 7 27 06 23.5 148.1 1002 0 2 Image Chart
1981 7 27 12 23.9 147.9 1000 0 2 Image Chart
1981 7 27 18 24.4 147.3 998 0 2 Image Chart
1981 7 28 00 24.7 146.7 996 0 2 Image Chart
1981 7 28 06 25.4 145.6 992 35 3 Image Chart
1981 7 28 12 26.1 144.5 990 35 3 Image Chart
1981 7 28 18 26.9 143.1 985 40 3 Image Chart
1981 7 29 00 27.6 141.9 985 45 3 Image Chart
1981 7 29 06 28.2 140.6 980 50 4 Image Chart
1981 7 29 12 28.8 139.3 980 50 4 Image Chart
1981 7 29 18 29.3 137.9 980 50 4 Image Chart
1981 7 30 00 29.9 136.6 985 45 3 Image Chart
1981 7 30 06 30.6 134.8 980 45 3 Image Chart
1981 7 30 12 31.2 132.7 975 45 3 Image Chart
1981 7 30 18 31.7 131.1 975 45 3 Image Chart
1981 7 31 00 32.8 129.5 990 0 2 Image Chart
1981 7 31 06 33.4 128.0 992 0 2 Image Chart
1981 7 31 12 34.0 126.5 992 0 2 Image Chart
1981 7 31 18 35.0 125.5 992 0 2 Image Chart
1981 8 1 00 36.0 125.0 996 0 2 Image Chart
1981 8 1 06 37.0 124.5 1002 0 2 Image Chart
1981 8 1 12 38.0 124.0 1006 0 2 Image Chart
1981 8 1 18 39.0 124.0 1006 0 2 Image Chart
Japan Meteorological Agency Best Track Data | Correction Date : 1992-10-21
< Typhoon 198109 1981 Season Typhoon 198111 >

Help